Time;durP1;ratioP1;P1;durP2;ratioP2;P2;SDS_P1;SDS_P2;PMS_P1;PMS_P2;Temp;Humidity;BMP_temperature;BMP_pressure;BME280_temperature;BME280_humidity;BME280_pressure;Samples;Min_cycle;Max_cycle;Signal;HPM_P1;HPM_P2
2023/05/05 00:01:14;;;;;;;16.65;8.45;;;;;;;11.83;100.00;92987.22;5011100;28;20053;-78
2023/05/05 00:03:41;;;;;;;12.10;8.20;;;;;;;11.83;100.00;92984.59;5033535;28;20124;-78
2023/05/05 00:06:07;;;;;;;12.90;8.95;;;;;;;11.83;100.00;92974.09;5033970;28;20041;-78
2023/05/05 00:08:32;;;;;;;13.70;8.70;;;;;;;11.86;100.00;92984.03;5035292;28;20470;-78
2023/05/05 00:10:58;;;;;;;16.33;8.60;;;;;;;11.89;100.00;92987.97;5030056;28;20021;-78
2023/05/05 00:13:24;;;;;;;12.98;8.40;;;;;;;11.92;100.00;92986.63;5035278;28;20039;-78
2023/05/05 00:15:52;;;;;;;17.38;9.77;;;;;;;11.94;100.00;92984.50;5033771;28;20112;-78
2023/05/05 00:18:18;;;;;;;16.50;10.27;;;;;;;11.95;100.00;92981.59;5034386;28;20048;-78
2023/05/05 00:20:47;;;;;;;18.13;10.93;;;;;;;11.96;100.00;92982.38;5034191;28;20403;-78
2023/05/05 00:23:14;;;;;;;18.77;10.77;;;;;;;12.00;100.00;92978.91;5032378;28;20045;-78
2023/05/05 00:25:39;;;;;;;18.83;11.65;;;;;;;12.03;100.00;92974.94;5035157;28;20041;-79
2023/05/05 00:28:05;;;;;;;22.08;11.52;;;;;;;12.04;100.00;92979.88;5050023;28;20044;-78
2023/05/05 00:30:32;;;;;;;17.67;11.35;;;;;;;12.08;100.00;92974.88;5027905;28;20033;-76
2023/05/05 00:32:57;;;;;;;18.67;10.98;;;;;;;12.11;100.00;92973.53;5033115;28;20029;-80
2023/05/05 00:35:23;;;;;;;17.80;11.68;;;;;;;12.13;100.00;92974.03;5034328;28;20399;-78
2023/05/05 00:37:49;;;;;;;20.25;12.93;;;;;;;12.15;100.00;92972.66;5034455;28;20041;-78
2023/05/05 00:40:17;;;;;;;23.10;12.88;;;;;;;12.17;100.00;92973.16;5033753;28;20514;-78
2023/05/05 00:42:44;;;;;;;20.23;12.45;;;;;;;12.19;100.00;92971.03;5034116;28;20095;-78
2023/05/05 00:45:12;;;;;;;22.52;13.10;;;;;;;12.22;100.00;92967.06;5016724;28;20068;-78
2023/05/05 00:47:38;;;;;;;26.48;13.25;;;;;;;12.24;100.00;92967.56;5033437;28;20075;-79
2023/05/05 00:50:08;;;;;;;20.50;12.82;;;;;;;12.26;100.00;92966.22;5033650;28;20029;-77
2023/05/05 00:52:35;;;;;;;23.17;12.45;;;;;;;12.27;100.00;92965.16;5026676;28;20507;-78
2023/05/05 00:55:02;;;;;;;22.67;12.88;;;;;;;12.27;100.00;92959.91;5013305;28;20492;-77
2023/05/05 00:57:28;;;;;;;20.85;12.38;;;;;;;12.31;100.00;92956.72;5032027;28;20030;-79
2023/05/05 00:59:54;;;;;;;21.13;12.75;;;;;;;12.32;100.00;92958.28;5033840;28;20105;-78
2023/05/05 01:02:21;;;;;;;22.33;13.10;;;;;;;12.33;100.00;92951.97;5031844;28;20041;-77
2023/05/05 01:04:47;;;;;;;23.30;13.38;;;;;;;12.34;100.00;92950.88;5033699;28;20033;-78
2023/05/05 01:07:33;;;;;;;20.98;12.63;;;;;;;12.35;100.00;92949.84;5032536;28;20069;-78
2023/05/05 01:10:09;;;;;;;18.73;12.43;;;;;;;12.37;100.00;92950.34;5029055;28;20098;-78
2023/05/05 01:12:57;;;;;;;24.95;13.18;;;;;;;12.37;100.00;92950.34;5032775;28;20499;-77
2023/05/05 01:15:31;;;;;;;21.63;12.80;;;;;;;12.37;100.00;92947.69;5015841;28;20028;-78
2023/05/05 01:18:15;;;;;;;21.98;13.25;;;;;;;12.37;100.00;92951.09;5033432;28;20406;-78
2023/05/05 01:20:40;;;;;;;20.70;12.85;;;;;;;12.37;100.00;92956.34;5032494;28;20036;-79
2023/05/05 01:23:08;;;;;;;20.73;12.80;;;;;;;12.38;100.00;92938.75;5048415;28;20049;-77
2023/05/05 01:25:51;;;;;;;24.45;13.25;;;;;;;12.39;100.00;92945.59;5048800;28;20041;-80
2023/05/05 01:28:33;;;;;;;24.35;13.48;;;;;;;12.38;100.00;92946.63;5032318;28;20033;-80
2023/05/05 01:31:14;;;;;;;20.55;12.50;;;;;;;12.39;100.00;92937.69;5030823;28;20034;-80
2023/05/05 01:33:48;;;;;;;22.25;13.07;;;;;;;12.41;100.00;92935.56;5031891;28;20037;-78
2023/05/05 01:36:21;;;;;;;24.60;12.43;;;;;;;12.39;100.00;92940.31;5033712;28;20037;-79
2023/05/05 01:38:54;;;;;;;22.10;12.52;;;;;;;12.33;100.00;92934.34;5048118;28;20487;-80
2023/05/05 01:41:25;;;;;;;19.92;11.95;;;;;;;12.37;100.00;92937.97;5031173;28;20049;-79
2023/05/05 01:43:53;;;;;;;20.92;12.30;;;;;;;12.39;100.00;92942.94;5033314;28;20087;-79
2023/05/05 01:46:22;;;;;;;22.30;12.60;;;;;;;12.38;100.00;92930.88;5048560;28;20037;-80
2023/05/05 01:48:50;;;;;;;22.88;12.98;;;;;;;12.37;100.00;92931.97;5032095;28;20040;-80
2023/05/05 01:51:18;;;;;;;22.95;12.73;;;;;;;12.38;100.00;92930.88;5033674;28;20037;-80
2023/05/05 01:53:46;;;;;;;21.65;12.70;;;;;;;12.37;100.00;92932.72;5014951;28;20033;-80
2023/05/05 01:56:14;;;;;;;25.50;12.85;;;;;;;12.36;100.00;92935.63;5033267;28;20041;-80
2023/05/05 01:58:43;;;;;;;21.60;12.15;;;;;;;12.38;100.00;92933.50;5034777;28;20083;-79
2023/05/05 02:01:10;;;;;;;21.10;12.52;;;;;;;12.38;100.00;92928.25;5051184;28;20033;-80
2023/05/05 02:03:37;;;;;;;18.63;11.25;;;;;;;12.35;100.00;92926.97;5033838;28;20398;-80
2023/05/05 02:06:04;;;;;;;22.88;12.73;;;;;;;12.37;100.00;92924.84;5019962;28;20031;-79
2023/05/05 02:08:31;;;;;;;22.33;13.73;;;;;;;12.37;100.00;92926.69;5016724;28;20034;-79
2023/05/05 02:10:59;;;;;;;21.67;12.85;;;;;;;12.35;100.00;92924.34;5045363;28;20072;-80
2023/05/05 02:13:27;;;;;;;24.30;12.27;;;;;;;12.37;100.00;92927.47;5031109;28;20053;-80
2023/05/05 02:15:54;;;;;;;19.98;12.15;;;;;;;12.37;100.00;92924.84;5032053;28;20037;-80
2023/05/05 02:18:21;;;;;;;22.05;12.63;;;;;;;12.34;100.00;92920.19;5027778;28;20060;-79
2023/05/05 02:20:47;;;;;;;23.58;13.45;;;;;;;12.37;100.00;92927.47;5031639;28;20042;-79
2023/05/05 02:23:13;;;;;;;21.48;13.93;;;;;;;12.37;100.00;92926.69;5032268;28;20130;-79
2023/05/05 02:26:04;;;;;;;26.25;13.02;;;;;;;12.37;100.00;92924.06;5032103;28;20041;-79
2023/05/05 02:28:46;;;;;;;25.38;13.73;;;;;;;12.38;100.00;92920.38;5024366;28;20046;-79
2023/05/05 02:31:14;;;;;;;21.75;12.95;;;;;;;12.37;100.00;92924.84;5024351;28;20029;-79
2023/05/05 02:33:42;;;;;;;21.65;12.75;;;;;;;12.37;100.00;92919.59;5026602;28;20032;-80
2023/05/05 02:36:18;;;;;;;23.55;13.63;;;;;;;12.36;100.00;92914.63;5031905;28;20407;-79
2023/05/05 02:38:54;;;;;;;23.55;13.95;;;;;;;12.37;100.00;92913.56;5028275;28;20650;-79
2023/05/05 02:41:23;;;;;;;20.92;12.75;;;;;;;12.36;100.00;92912.81;5031683;28;20026;-79
2023/05/05 02:43:50;;;;;;;22.67;13.60;;;;;;;12.35;100.00;92905.97;5027577;28;20030;-79
2023/05/05 02:46:18;;;;;;;24.25;13.10;;;;;;;12.35;100.00;92907.84;5023769;28;20056;-79
2023/05/05 02:48:45;;;;;;;21.50;13.75;;;;;;;12.36;100.00;92912.81;5015035;28;20406;-79
2023/05/05 02:51:11;;;;;;;22.45;13.43;;;;;;;12.37;100.00;92909.09;5015262;28;20034;-79
2023/05/05 02:53:37;;;;;;;22.92;14.52;;;;;;;12.36;100.00;92907.56;5031116;28;20041;-79
2023/05/05 02:56:15;;;;;;;24.25;13.27;;;;;;;12.38;100.00;92904.63;5035323;28;20125;-79
2023/05/05 02:59:11;;;;;;;23.90;12.73;;;;;;;12.39;100.00;92898.31;5035711;28;20057;-79
2023/05/05 03:02:08;;;;;;;20.83;12.18;;;;;;;12.40;100.00;92897.25;5035171;28;20035;-79
2023/05/05 03:04:42;;;;;;;19.75;12.82;;;;;;;12.33;100.00;92891.59;5034482;28;20037;-79
2023/05/05 03:07:14;;;;;;;21.80;12.63;;;;;;;12.41;100.00;92901.44;5050974;28;20486;-79
2023/05/05 03:09:54;;;;;;;28.38;13.30;;;;;;;12.38;100.00;92902.00;5015340;28;20056;-79
2023/05/05 03:12:26;;;;;;;20.35;12.05;;;;;;;12.37;100.00;92895.19;5033663;28;20037;-79
2023/05/05 03:15:01;;;;;;;23.48;12.48;;;;;;;12.38;100.00;92891.50;5034411;28;20045;-79
2023/05/05 03:17:30;;;;;;;24.25;13.48;;;;;;;12.37;100.00;92885.47;5051428;28;20037;-79
2023/05/05 03:19:56;;;;;;;21.95;12.50;;;;;;;12.37;100.00;92889.94;5034539;28;20049;-79
2023/05/05 03:22:22;;;;;;;19.38;12.35;;;;;;;12.38;100.00;92883.63;5035881;28;20038;-79
2023/05/05 03:24:50;;;;;;;21.65;13.45;;;;;;;12.37;100.00;92876.81;5049546;28;20051;-79
2023/05/05 03:27:19;;;;;;;20.92;12.88;;;;;;;12.37;100.00;92879.44;5018450;28;20448;-79
2023/05/05 03:29:45;;;;;;;23.35;13.23;;;;;;;12.36;100.00;92880.50;5036056;28;20034;-79
2023/05/05 03:32:13;;;;;;;21.20;13.10;;;;;;;12.37;100.00;92879.44;5034789;28;20157;-79
2023/05/05 03:34:39;;;;;;;22.15;12.50;;;;;;;12.37;100.00;92884.69;5030540;28;20037;-79
2023/05/05 03:37:05;;;;;;;22.52;13.50;;;;;;;12.35;100.00;92884.19;5034249;28;20045;-79
2023/05/05 03:39:31;;;;;;;23.90;12.68;;;;;;;12.34;100.00;92882.63;5033297;28;20042;-79
2023/05/05 03:41:57;;;;;;;22.85;13.35;;;;;;;12.35;100.00;92884.19;5021433;28;20029;-79
2023/05/05 03:44:25;;;;;;;22.85;13.23;;;;;;;12.33;100.00;92881.09;5032312;28;20041;-78
2023/05/05 03:46:50;;;;;;;22.05;12.82;;;;;;;12.33;100.00;92876.59;5035186;28;20499;-79
2023/05/05 03:49:17;;;;;;;22.70;12.60;;;;;;;12.33;100.00;92881.09;5034887;28;20498;-79
2023/05/05 03:51:44;;;;;;;20.65;12.30;;;;;;;12.30;100.00;92877.19;5034284;28;20068;-80
2023/05/05 03:54:10;;;;;;;19.50;11.75;;;;;;;12.31;100.00;92876.13;5049085;28;20041;-79
2023/05/05 03:56:36;;;;;;;18.98;11.55;;;;;;;12.32;100.00;92876.91;5034183;28;20147;-79
2023/05/05 03:59:01;;;;;;;19.67;12.13;;;;;;;12.31;100.00;92875.34;5016357;28;20042;-79
2023/05/05 04:01:28;;;;;;;18.48;12.65;;;;;;;12.29;100.00;92870.38;5001242;28;20053;-79
2023/05/05 04:03:55;;;;;;;19.05;12.13;;;;;;;12.27;100.00;92873.28;5017265;28;20033;-79
2023/05/05 04:06:20;;;;;;;20.55;12.63;;;;;;;12.28;100.00;92877.47;5033370;28;20395;-79
2023/05/05 04:08:46;;;;;;;18.23;11.68;;;;;;;12.22;100.00;92868.09;5035440;28;20112;-79
2023/05/05 04:11:12;;;;;;;17.67;10.82;;;;;;;12.27;100.00;92883.78;5033432;28;20045;-79
2023/05/05 04:13:38;;;;;;;18.73;11.48;;;;;;;12.27;100.00;92883.00;5031595;28;20053;-79
2023/05/05 04:16:03;;;;;;;17.50;11.77;;;;;;;12.25;100.00;92883.31;5017193;28;20068;-80
2023/05/05 04:18:30;;;;;;;19.30;12.45;;;;;;;12.26;100.00;92887.47;5033227;28;20525;-79
2023/05/05 04:20:56;;;;;;;21.88;11.70;;;;;;;12.26;100.00;92897.19;5034511;28;21353;-79
2023/05/05 04:23:22;;;;;;;18.50;11.90;;;;;;;12.25;100.00;92891.19;5033194;28;20523;-79
2023/05/05 04:25:48;;;;;;;18.65;12.10;;;;;;;12.24;100.00;92883.56;5050406;28;20657;-78
2023/05/05 04:28:14;;;;;;;19.48;11.35;;;;;;;12.29;100.00;92889.53;5034554;28;20033;-79
2023/05/05 04:30:40;;;;;;;21.45;11.88;;;;;;;12.31;100.00;92896.34;5035587;28;20421;-79
2023/05/05 04:33:06;;;;;;;21.23;11.90;;;;;;;12.31;100.00;92889.22;5014358;28;20133;-79
2023/05/05 04:35:32;;;;;;;22.20;11.85;;;;;;;12.34;100.00;92895.75;5033424;28;20064;-79
2023/05/05 04:37:58;;;;;;;17.17;10.93;;;;;;;12.36;100.00;92893.63;5033382;28;20040;-79
2023/05/05 04:40:25;;;;;;;18.05;11.07;;;;;;;12.37;100.00;92893.34;5021158;28;20575;-79
2023/05/05 04:42:51;;;;;;;17.15;11.27;;;;;;;12.40;100.00;92892.00;5024561;28;20128;-79
2023/05/05 04:45:16;;;;;;;17.75;10.70;;;;;;;12.45;100.00;92891.91;5016770;28;20069;-79
2023/05/05 04:47:42;;;;;;;24.73;12.52;;;;;;;12.49;100.00;92892.91;5034238;28;20036;-79
2023/05/05 04:50:08;;;;;;;20.73;12.85;;;;;;;12.59;100.00;92900.63;5032603;28;20063;-80
2023/05/05 04:52:34;;;;;;;18.13;11.65;;;;;;;12.64;100.00;92903.16;5012615;28;20041;-79
2023/05/05 04:55:00;;;;;;;17.35;11.63;;;;;;;12.70;100.00;92907.25;5032383;28;20447;-79
2023/05/05 04:57:26;;;;;;;20.67;12.00;;;;;;;12.74;100.00;92902.19;5030843;28;20148;-79
2023/05/05 04:59:52;;;;;;;17.48;11.43;;;;;;;12.80;100.00;92900.28;5030793;28;20079;-79
2023/05/05 05:02:18;;;;;;;18.55;10.27;;;;;;;12.87;100.00;92900.66;5011913;28;20029;-79
2023/05/05 05:04:43;;;;;;;14.02;9.50;;;;;;;12.93;100.00;92899.53;5024377;28;20041;-79
2023/05/05 05:07:10;;;;;;;14.07;8.75;;;;;;;13.02;100.00;92902.25;5025705;28;20435;-79
2023/05/05 05:09:36;;;;;;;15.93;8.90;;;;;;;13.12;100.00;92908.09;5021552;28;20102;-81
2023/05/05 05:12:02;;;;;;;15.25;9.50;;;;;;;13.21;100.00;92902.16;5033904;28;20041;-79
2023/05/05 05:14:28;;;;;;;15.95;9.88;;;;;;;13.30;100.00;92903.84;5031405;28;20041;-80
2023/05/05 05:16:54;;;;;;;12.30;7.45;;;;;;;13.43;100.00;92907.56;5015021;28;20060;-80
2023/05/05 05:19:21;;;;;;;13.45;8.52;;;;;;;13.48;100.00;92898.78;5030295;28;20392;-82
2023/05/05 05:21:47;;;;;;;12.10;7.47;;;;;;;13.47;100.00;92905.91;5032067;28;20052;-81
2023/05/05 05:24:13;;;;;;;13.02;7.18;;;;;;;13.50;100.00;92907.16;5016075;28;20033;-79
2023/05/05 05:26:39;;;;;;;14.45;7.82;;;;;;;13.50;100.00;92910.56;5025753;28;20116;-79
2023/05/05 05:29:13;;;;;;;10.00;7.30;;;;;;;13.66;100.00;92912.91;5024875;28;20069;-78
2023/05/05 05:31:48;;;;;;;10.07;7.15;;;;;;;13.87;100.00;92902.72;5012798;28;20243;-79
2023/05/05 05:34:21;;;;;;;10.25;6.82;;;;;;;13.92;100.00;92915.78;5003575;28;20037;-78
2023/05/05 05:36:47;;;;;;;9.90;6.90;;;;;;;14.04;100.00;92912.63;5031732;28;20064;-80
2023/05/05 05:39:14;;;;;;;9.52;7.00;;;;;;;14.20;100.00;92908.59;5012580;28;20029;-77
2023/05/05 05:41:40;;;;;;;10.20;6.75;;;;;;;14.35;100.00;92910.88;5015879;28;20382;-78
2023/05/05 05:44:06;;;;;;;12.13;7.07;;;;;;;14.62;99.71;92914.50;5031755;28;20045;-78
2023/05/05 05:46:31;;;;;;;8.98;6.75;;;;;;;14.71;98.46;92907.44;5015869;28;20100;-78
2023/05/05 05:48:57;;;;;;;15.32;7.03;;;;;;;14.94;95.09;92916.06;5030282;28;20033;-79
2023/05/05 05:51:23;;;;;;;12.23;7.35;;;;;;;14.95;94.99;92916.84;5031588;28;20499;-79
2023/05/05 05:53:50;;;;;;;11.75;7.85;;;;;;;15.07;93.81;92919.72;5031189;28;20479;-79
2023/05/05 05:56:16;;;;;;;11.13;7.35;;;;;;;15.19;95.68;92927.81;5031328;28;20057;-79
2023/05/05 05:58:42;;;;;;;14.80;7.97;;;;;;;15.08;96.75;92920.50;5031134;28;20094;-79
2023/05/05 06:01:08;;;;;;;13.05;8.63;;;;;;;15.21;93.67;92919.63;5032166;28;20041;-78
2023/05/05 06:03:34;;;;;;;15.00;8.32;;;;;;;15.88;88.61;92920.50;5032344;28;20033;-79
2023/05/05 06:05:59;;;;;;;14.48;7.85;;;;;;;16.80;82.47;92902.66;5032011;28;20021;-78
2023/05/05 06:08:25;;;;;;;11.85;7.45;;;;;;;17.48;78.99;92917.84;5033421;28;20156;-80
2023/05/05 06:10:53;;;;;;;12.40;7.55;;;;;;;17.28;79.42;92922.72;5027141;28;20029;-78
2023/05/05 06:13:20;;;;;;;16.77;7.28;;;;;;;17.71;78.63;92926.28;5032637;28;20718;-80
2023/05/05 06:15:48;;;;;;;11.93;7.90;;;;;;;17.83;76.57;92922.97;5031734;28;20060;-79
2023/05/05 06:18:15;;;;;;;11.20;7.43;;;;;;;17.85;78.46;92923.44;5023607;28;20090;-79
2023/05/05 06:20:42;;;;;;;12.48;7.93;;;;;;;18.04;76.59;92921.16;5030651;28;20033;-80
2023/05/05 06:23:08;;;;;;;11.25;8.15;;;;;;;18.57;75.17;92923.44;5012231;28;20136;-79
2023/05/05 06:25:38;;;;;;;13.73;7.57;;;;;;;18.74;72.78;92923.28;5036909;28;20040;-79
2023/05/05 06:28:04;;;;;;;14.18;8.05;;;;;;;18.82;71.96;92927.75;5031587;28;20447;-79
2023/05/05 06:30:30;;;;;;;15.57;7.30;;;;;;;19.04;72.21;92925.84;5034947;28;20553;-80
2023/05/05 06:32:55;;;;;;;11.32;7.15;;;;;;;19.18;70.70;92928.94;5034635;28;20057;-80
2023/05/05 06:35:21;;;;;;;11.05;6.32;;;;;;;19.61;68.65;92924.25;5018543;28;20045;-79
2023/05/05 06:37:46;;;;;;;15.48;6.70;;;;;;;19.19;70.42;92924.44;5035153;28;20103;-79
2023/05/05 06:40:12;;;;;;;12.25;6.97;;;;;;;18.62;75.46;92926.66;5034926;28;20426;-80
2023/05/05 06:42:38;;;;;;;12.02;6.85;;;;;;;18.76;75.09;92923.72;5033990;28;20096;-80
2023/05/05 06:45:07;;;;;;;11.25;7.55;;;;;;;18.70;75.37;92920.50;5034777;28;20072;-79
2023/05/05 06:47:33;;;;;;;12.43;7.85;;;;;;;18.34;76.81;92918.47;5034044;28;20025;-80
2023/05/05 06:49:58;;;;;;;12.77;7.07;;;;;;;18.10;78.96;92927.81;4998883;28;20080;-79
2023/05/05 06:52:24;;;;;;;15.80;7.78;;;;;;;17.66;81.28;92921.97;5031711;28;20046;-80
2023/05/05 06:54:50;;;;;;;11.82;7.70;;;;;;;17.42;83.13;92914.59;5035103;28;20045;-80
2023/05/05 06:57:15;;;;;;;15.20;8.18;;;;;;;17.12;84.74;92918.28;5035458;28;20128;-79
2023/05/05 06:59:41;;;;;;;13.98;7.97;;;;;;;17.15;84.98;92918.41;5035134;28;20034;-79
2023/05/05 07:02:07;;;;;;;10.82;8.02;;;;;;;17.03;85.36;92931.53;5036024;28;20053;-80
2023/05/05 07:04:32;;;;;;;9.90;7.43;;;;;;;16.57;86.92;92931.09;5035096;28;20410;-79
2023/05/05 07:06:58;;;;;;;12.10;8.65;;;;;;;16.53;87.19;92924.88;5035687;28;20037;-80
2023/05/05 07:09:23;;;;;;;10.32;7.82;;;;;;;16.65;86.89;92922.38;5035178;28;20347;-79
2023/05/05 07:11:49;;;;;;;12.48;8.40;;;;;;;16.57;87.11;92935.59;5034507;28;20036;-79
2023/05/05 07:14:14;;;;;;;11.73;8.18;;;;;;;17.04;84.57;92933.06;5028665;28;20050;-79
2023/05/05 07:16:40;;;;;;;12.13;8.55;;;;;;;16.67;84.57;92930.00;5051204;28;20091;-79
2023/05/05 07:19:06;;;;;;;12.68;7.75;;;;;;;17.11;82.92;92920.13;5034932;28;20041;-80
2023/05/05 07:21:35;;;;;;;13.95;7.93;;;;;;;17.20;82.60;92920.13;5033999;28;20030;-80
2023/05/05 07:24:02;;;;;;;11.63;7.88;;;;;;;17.22;80.99;92921.34;5051493;28;20049;-79
2023/05/05 07:26:28;;;;;;;12.27;7.95;;;;;;;17.01;81.31;92923.91;5054639;28;20061;-79
2023/05/05 07:28:57;;;;;;;10.30;7.93;;;;;;;16.97;82.05;92922.19;5055686;28;20063;-80
2023/05/05 07:31:24;;;;;;;14.90;7.88;;;;;;;16.91;85.24;92926.09;5035781;28;20453;-80
2023/05/05 07:33:50;;;;;;;11.48;7.80;;;;;;;17.24;81.90;92924.44;5037383;28;20235;-79
2023/05/05 07:36:18;;;;;;;12.35;7.88;;;;;;;17.09;81.22;92929.47;5047324;28;20033;-79
2023/05/05 07:38:44;;;;;;;16.35;8.35;;;;;;;17.15;82.32;92929.00;5037481;28;20506;-79
2023/05/05 07:41:12;;;;;;;11.65;7.65;;;;;;;17.42;81.02;92916.47;5036060;28;20041;-78
2023/05/05 07:43:41;;;;;;;11.10;8.57;;;;;;;17.18;81.31;92922.28;5054944;28;20481;-79
2023/05/05 07:46:07;;;;;;;12.27;8.38;;;;;;;17.19;82.97;92922.00;5054266;28;20043;-79
2023/05/05 07:48:33;;;;;;;10.68;8.35;;;;;;;16.90;83.35;92922.69;5036607;28;20053;-79
2023/05/05 07:50:59;;;;;;;12.02;8.05;;;;;;;17.36;82.99;92909.78;5054890;28;20552;-79
2023/05/05 07:53:24;;;;;;;14.40;8.63;;;;;;;17.30;82.05;92913.72;5037386;28;20064;-79
2023/05/05 07:55:50;;;;;;;16.45;7.70;;;;;;;16.92;83.02;92919.72;5054200;28;20045;-78
2023/05/05 07:58:15;;;;;;;11.65;8.45;;;;;;;16.75;85.86;92915.22;5018626;28;20083;-79
2023/05/05 08:00:42;;;;;;;10.95;7.40;;;;;;;17.01;83.13;92923.13;5047642;28;20053;-79
2023/05/05 08:03:08;;;;;;;16.60;9.50;;;;;;;17.00;82.56;92924.22;5054501;28;20041;-79
2023/05/05 08:05:34;;;;;;;16.08;9.60;;;;;;;16.96;83.81;92926.72;5036082;28;20116;-79
2023/05/05 08:07:59;;;;;;;15.02;10.02;;;;;;;17.10;82.21;92923.88;5054287;28;20024;-79
2023/05/05 08:10:25;;;;;;;19.05;12.25;;;;;;;16.95;81.23;92930.44;5019722;28;20037;-80
2023/05/05 08:12:51;;;;;;;15.50;9.73;;;;;;;17.08;81.06;92925.28;5054454;28;20040;-80
2023/05/05 08:15:17;;;;;;;11.63;7.50;;;;;;;17.23;79.92;92925.56;5054217;28;20084;-80
2023/05/05 08:17:54;;;;;;;20.48;11.57;;;;;;;17.43;78.44;92918.81;5054051;28;20120;-79
2023/05/05 08:20:20;;;;;;;21.45;11.73;;;;;;;17.36;78.78;92923.00;5033692;28;21430;-80
2023/05/05 08:22:46;;;;;;;18.08;11.30;;;;;;;17.27;78.99;92921.19;5036067;28;20056;-79
2023/05/05 08:25:12;;;;;;;16.15;10.75;;;;;;;17.53;76.16;92924.81;5053255;28;20064;-79
2023/05/05 08:27:39;;;;;;;15.07;11.13;;;;;;;17.25;77.35;92923.38;5053887;28;20057;-79
2023/05/05 08:30:06;;;;;;;15.52;11.20;;;;;;;17.16;80.05;92924.50;5034206;28;20036;-79
2023/05/05 08:32:32;;;;;;;17.25;11.38;;;;;;;17.39;76.69;92930.34;5054147;28;20035;-80
2023/05/05 08:34:59;;;;;;;16.50;10.75;;;;;;;17.43;75.57;92928.63;5054017;28;20389;-79
2023/05/05 08:37:25;;;;;;;18.77;10.27;;;;;;;17.41;76.29;92936.09;5054212;28;20390;-79
2023/05/05 08:39:51;;;;;;;14.68;10.10;;;;;;;17.63;75.22;92930.56;5035108;28;20027;-78
2023/05/05 08:42:16;;;;;;;18.13;11.68;;;;;;;17.58;76.06;92929.94;5053612;28;20049;-78
2023/05/05 08:44:42;;;;;;;15.00;8.25;;;;;;;17.92;73.45;92934.31;5054219;28;20457;-79
2023/05/05 08:47:09;;;;;;;16.58;9.50;;;;;;;18.13;74.22;92923.00;5034711;28;20052;-78
2023/05/05 08:49:44;;;;;;;13.32;9.13;;;;;;;18.02;72.05;92923.34;5053348;28;20045;-79
2023/05/05 08:52:17;;;;;;;14.75;8.80;;;;;;;18.13;75.36;92929.06;5048982;28;20047;-77
2023/05/05 08:54:53;;;;;;;12.05;8.20;;;;;;;18.35;72.81;92938.56;5032378;28;20024;-77
2023/05/05 08:57:27;;;;;;;15.63;9.60;;;;;;;18.47;70.24;92928.03;5049581;28;20489;-77
2023/05/05 08:59:53;;;;;;;14.50;9.43;;;;;;;18.52;72.86;92930.47;5047509;28;20029;-78
2023/05/05 09:02:22;;;;;;;17.20;10.38;;;;;;;18.96;69.67;92932.00;5050053;28;20040;-77
2023/05/05 09:04:50;;;;;;;19.92;10.30;;;;;;;19.00;73.75;92930.25;5049244;28;20037;-78
2023/05/05 09:07:17;;;;;;;19.27;11.27;;;;;;;18.83;66.96;92929.31;5049217;28;20075;-77
2023/05/05 09:09:43;;;;;;;15.90;10.20;;;;;;;18.88;68.24;92937.06;5033190;28;20116;-77
2023/05/05 09:12:09;;;;;;;19.73;10.60;;;;;;;19.35;67.56;92928.00;5051418;28;20115;-77
2023/05/05 09:14:34;;;;;;;21.55;12.88;;;;;;;19.29;65.37;92924.78;5050382;28;20473;-77
2023/05/05 09:17:01;;;;;;;20.83;12.85;;;;;;;18.70;67.94;92932.97;5029961;28;20060;-77
2023/05/05 09:19:27;;;;;;;17.40;10.90;;;;;;;18.63;70.45;92919.47;5032055;28;20037;-77
2023/05/05 09:21:53;;;;;;;20.02;12.63;;;;;;;18.78;70.14;92926.88;5048769;28;20134;-77
2023/05/05 09:24:19;;;;;;;27.27;12.73;;;;;;;18.63;69.13;92914.19;5049983;28;20044;-77
2023/05/05 09:26:45;;;;;;;14.98;10.75;;;;;;;18.77;69.04;92925.31;5015225;28;20037;-76
2023/05/05 09:29:21;;;;;;;20.13;11.75;;;;;;;18.26;69.58;92917.44;5049631;28;20438;-76
2023/05/05 09:32:07;;;;;;;26.08;14.93;;;;;;;18.63;68.54;92914.19;5049821;28;20048;-77
2023/05/05 09:34:34;;;;;;;21.60;13.77;;;;;;;18.68;67.33;92911.31;5048196;28;20063;-76
2023/05/05 09:37:00;;;;;;;17.80;10.25;;;;;;;18.61;67.64;92911.06;5047350;28;20503;-76
2023/05/05 09:39:26;;;;;;;18.17;12.77;;;;;;;18.54;68.05;92911.59;5031239;28;20287;-76
2023/05/05 09:41:51;;;;;;;22.27;12.18;;;;;;;18.85;68.04;92905.13;5048025;28;20044;-76
2023/05/05 09:44:32;;;;;;;18.27;12.15;;;;;;;19.13;66.53;92903.41;5015106;28;20069;-76
2023/05/05 09:46:58;;;;;;;18.48;12.85;;;;;;;19.09;66.88;92904.38;5046243;28;20033;-76
2023/05/05 09:49:25;;;;;;;21.27;13.20;;;;;;;18.95;68.07;92888.00;5046876;28;20115;-76
2023/05/05 09:51:52;;;;;;;22.58;12.70;;;;;;;18.83;66.61;92897.47;5031150;28;20564;-76
2023/05/05 09:54:21;;;;;;;17.35;11.05;;;;;;;18.79;66.79;92893.94;5031971;28;20070;-77
2023/05/05 09:56:46;;;;;;;20.02;12.23;;;;;;;18.44;69.15;92896.06;5048320;28;20037;-77
2023/05/05 09:59:12;;;;;;;21.63;13.65;;;;;;;18.69;69.07;92892.44;5049123;28;20132;-78
2023/05/05 10:01:38;;;;;;;16.58;11.52;;;;;;;18.12;67.77;92892.28;5029699;28;20486;-78
2023/05/05 10:04:04;;;;;;;30.10;16.70;;;;;;;18.76;69.66;92886.59;5048875;28;20059;-77
2023/05/05 10:06:41;;;;;;;11.23;7.60;;;;;;;18.69;64.49;92884.50;5043553;28;20092;-78
2023/05/05 10:09:07;;;;;;;19.02;11.60;;;;;;;18.73;65.11;92889.91;5032525;28;20048;-77
2023/05/05 10:11:33;;;;;;;16.27;10.20;;;;;;;18.55;66.80;92880.56;5030765;28;20036;-78
2023/05/05 10:13:59;;;;;;;23.85;15.30;;;;;;;18.91;64.62;92878.06;5050798;28;20025;-78
2023/05/05 10:16:28;;;;;;;13.52;9.27;;;;;;;19.16;64.87;92880.75;5018319;28;20037;-78
2023/05/05 10:18:57;;;;;;;15.43;8.27;;;;;;;19.20;63.73;92873.69;5053014;28;20029;-78
2023/05/05 10:21:24;;;;;;;21.30;12.88;;;;;;;19.06;64.71;92886.50;5049880;28;20940;-77
2023/05/05 10:24:01;;;;;;;23.00;11.48;;;;;;;18.88;65.87;92877.94;5030065;28;20132;-77
2023/05/05 10:26:29;;;;;;;17.73;10.95;;;;;;;18.85;62.50;92895.28;5046254;28;20158;-77
2023/05/05 10:29:00;;;;;;;16.45;11.02;;;;;;;18.48;66.45;92879.19;5045419;28;20026;-77
2023/05/05 10:31:40;;;;;;;16.25;11.05;;;;;;;18.13;68.07;92872.66;5048538;28;20044;-78
2023/05/05 10:34:09;;;;;;;17.20;11.73;;;;;;;18.16;69.54;92870.13;5032456;28;20138;-77
2023/05/05 10:36:37;;;;;;;13.20;9.45;;;;;;;18.17;67.20;92876.97;5033811;28;20048;-78
2023/05/05 10:39:05;;;;;;;15.10;10.43;;;;;;;18.80;68.29;92866.31;5050667;28;20084;-77
2023/05/05 10:41:32;;;;;;;19.48;12.05;;;;;;;18.96;63.99;92863.03;5033528;28;20037;-77
2023/05/05 10:43:58;;;;;;;16.30;10.55;;;;;;;18.90;67.02;92860.59;5047913;28;20036;-77
2023/05/05 10:46:27;;;;;;;16.52;9.75;;;;;;;19.17;64.13;92866.38;5049156;28;20045;-77
2023/05/05 10:49:05;;;;;;;13.57;7.57;;;;;;;19.49;62.96;92869.28;5032293;28;20033;-77
2023/05/05 10:51:56;;;;;;;12.48;8.65;;;;;;;19.46;64.09;92864.63;5049432;28;20148;-77
2023/05/05 10:54:32;;;;;;;14.93;9.73;;;;;;;19.37;63.17;92858.66;5045298;28;20032;-77
2023/05/05 10:57:03;;;;;;;15.27;8.95;;;;;;;19.53;63.40;92860.31;5049464;28;20033;-77
2023/05/05 10:59:35;;;;;;;15.48;9.85;;;;;;;19.79;60.32;92861.09;5047586;28;20465;-77
2023/05/05 11:02:24;;;;;;;17.58;10.30;;;;;;;19.92;62.90;92858.09;5048161;28;20044;-78
2023/05/05 11:05:22;;;;;;;23.42;12.25;;;;;;;19.81;63.06;92849.03;5041430;28;20071;-77
2023/05/05 11:07:50;;;;;;;16.13;10.57;;;;;;;19.58;63.59;92846.03;4993295;28;20056;-77
2023/05/05 11:10:22;;;;;;;15.18;9.70;;;;;;;19.76;62.84;92846.59;5049224;28;20028;-77
2023/05/05 11:13:01;;;;;;;19.13;11.63;;;;;;;19.90;61.86;92847.03;5047461;28;20040;-78
2023/05/05 11:15:26;;;;;;;14.73;10.00;;;;;;;19.89;59.96;92842.06;5046073;28;20060;-77
2023/05/05 11:17:56;;;;;;;21.33;12.48;;;;;;;19.86;61.83;92835.53;5048989;28;20030;-78
2023/05/05 11:20:34;;;;;;;15.18;10.05;;;;;;;19.74;62.60;92838.97;5051825;28;20445;-77
2023/05/05 11:23:03;;;;;;;18.60;12.55;;;;;;;19.53;63.56;92833.00;5045630;28;20120;-76